sensor_id;sensor_type;location;lat;lon;timestamp;P1;durP1;ratioP1;P2;durP2;ratioP2
9467;SDS011;4772;52.382;9.752;2024-01-10T00:01:27;10.93;;;7.27;;
9467;SDS011;4772;52.382;9.752;2024-01-10T00:03:53;10.27;;;6.60;;
9467;SDS011;4772;52.382;9.752;2024-01-10T00:06:19;12.07;;;7.03;;
9467;SDS011;4772;52.382;9.752;2024-01-10T00:08:45;10.37;;;6.87;;
9467;SDS011;4772;52.382;9.752;2024-01-10T00:11:11;9.97;;;6.47;;
9467;SDS011;4772;52.382;9.752;2024-01-10T00:13:37;11.20;;;7.27;;
9467;SDS011;4772;52.382;9.752;2024-01-10T00:16:03;11.77;;;7.53;;
9467;SDS011;4772;52.382;9.752;2024-01-10T00:18:30;12.63;;;7.50;;
9467;SDS011;4772;52.382;9.752;2024-01-10T00:20:56;11.47;;;7.50;;
9467;SDS011;4772;52.382;9.752;2024-01-10T00:23:22;12.93;;;7.67;;
9467;SDS011;4772;52.382;9.752;2024-01-10T00:25:48;12.53;;;7.47;;
9467;SDS011;4772;52.382;9.752;2024-01-10T00:28:14;13.07;;;7.33;;
9467;SDS011;4772;52.382;9.752;2024-01-10T00:30:44;11.63;;;6.97;;
9467;SDS011;4772;52.382;9.752;2024-01-10T00:33:10;11.60;;;7.27;;
9467;SDS011;4772;52.382;9.752;2024-01-10T00:35:36;13.83;;;7.43;;
9467;SDS011;4772;52.382;9.752;2024-01-10T00:38:02;13.37;;;7.57;;
9467;SDS011;4772;52.382;9.752;2024-01-10T00:40:28;11.17;;;7.00;;
9467;SDS011;4772;52.382;9.752;2024-01-10T00:42:54;12.43;;;7.60;;
9467;SDS011;4772;52.382;9.752;2024-01-10T00:45:20;12.40;;;7.23;;
9467;SDS011;4772;52.382;9.752;2024-01-10T00:47:49;13.67;;;7.90;;
9467;SDS011;4772;52.382;9.752;2024-01-10T00:50:15;14.37;;;8.27;;
9467;SDS011;4772;52.382;9.752;2024-01-10T00:52:41;14.90;;;7.90;;
9467;SDS011;4772;52.382;9.752;2024-01-10T00:55:07;12.77;;;7.73;;
9467;SDS011;4772;52.382;9.752;2024-01-10T00:57:33;12.10;;;7.60;;
9467;SDS011;4772;52.382;9.752;2024-01-10T00:59:59;15.07;;;7.93;;
9467;SDS011;4772;52.382;9.752;2024-01-10T01:02:26;14.03;;;8.40;;
9467;SDS011;4772;52.382;9.752;2024-01-10T01:04:52;12.03;;;7.43;;
9467;SDS011;4772;52.382;9.752;2024-01-10T01:07:18;13.80;;;7.77;;
9467;SDS011;4772;52.382;9.752;2024-01-10T01:09:44;13.90;;;7.53;;
9467;SDS011;4772;52.382;9.752;2024-01-10T01:12:09;14.77;;;7.93;;
9467;SDS011;4772;52.382;9.752;2024-01-10T01:14:35;15.00;;;8.33;;
9467;SDS011;4772;52.382;9.752;2024-01-10T01:17:02;14.90;;;7.53;;
9467;SDS011;4772;52.382;9.752;2024-01-10T01:19:28;13.93;;;7.90;;
9467;SDS011;4772;52.382;9.752;2024-01-10T01:21:54;15.53;;;8.30;;
9467;SDS011;4772;52.382;9.752;2024-01-10T01:24:21;15.07;;;8.57;;
9467;SDS011;4772;52.382;9.752;2024-01-10T01:26:46;12.30;;;8.07;;
9467;SDS011;4772;52.382;9.752;2024-01-10T01:29:12;12.70;;;7.97;;
9467;SDS011;4772;52.382;9.752;2024-01-10T01:31:38;14.10;;;8.40;;
9467;SDS011;4772;52.382;9.752;2024-01-10T01:34:04;14.43;;;8.70;;
9467;SDS011;4772;52.382;9.752;2024-01-10T01:36:30;15.37;;;8.73;;
9467;SDS011;4772;52.382;9.752;2024-01-10T01:38:56;14.50;;;8.23;;
9467;SDS011;4772;52.382;9.752;2024-01-10T01:41:22;15.70;;;7.80;;
9467;SDS011;4772;52.382;9.752;2024-01-10T01:43:48;14.20;;;8.23;;
9467;SDS011;4772;52.382;9.752;2024-01-10T01:46:14;13.53;;;7.67;;
9467;SDS011;4772;52.382;9.752;2024-01-10T01:48:41;13.87;;;8.07;;
9467;SDS011;4772;52.382;9.752;2024-01-10T01:51:07;14.50;;;7.70;;
9467;SDS011;4772;52.382;9.752;2024-01-10T01:53:35;14.03;;;7.47;;
9467;SDS011;4772;52.382;9.752;2024-01-10T01:56:02;14.77;;;8.53;;
9467;SDS011;4772;52.382;9.752;2024-01-10T01:58:28;15.43;;;8.60;;
9467;SDS011;4772;52.382;9.752;2024-01-10T02:00:55;13.87;;;8.57;;
9467;SDS011;4772;52.382;9.752;2024-01-10T02:03:21;13.93;;;8.60;;
9467;SDS011;4772;52.382;9.752;2024-01-10T02:05:47;16.47;;;8.80;;
9467;SDS011;4772;52.382;9.752;2024-01-10T02:08:13;12.67;;;8.43;;
9467;SDS011;4772;52.382;9.752;2024-01-10T02:10:39;12.13;;;7.80;;
9467;SDS011;4772;52.382;9.752;2024-01-10T02:13:05;13.87;;;8.60;;
9467;SDS011;4772;52.382;9.752;2024-01-10T02:15:34;17.97;;;8.33;;
9467;SDS011;4772;52.382;9.752;2024-01-10T02:18:00;14.10;;;8.57;;
9467;SDS011;4772;52.382;9.752;2024-01-10T02:20:26;15.80;;;8.80;;
9467;SDS011;4772;52.382;9.752;2024-01-10T02:22:52;13.47;;;8.20;;
9467;SDS011;4772;52.382;9.752;2024-01-10T02:25:18;13.33;;;8.40;;
9467;SDS011;4772;52.382;9.752;2024-01-10T02:27:44;15.37;;;9.40;;
9467;SDS011;4772;52.382;9.752;2024-01-10T02:30:10;15.93;;;9.00;;
9467;SDS011;4772;52.382;9.752;2024-01-10T02:32:36;12.27;;;8.17;;
9467;SDS011;4772;52.382;9.752;2024-01-10T02:35:03;17.27;;;9.37;;
9467;SDS011;4772;52.382;9.752;2024-01-10T02:37:29;15.83;;;9.13;;
9467;SDS011;4772;52.382;9.752;2024-01-10T02:39:55;14.17;;;8.70;;
9467;SDS011;4772;52.382;9.752;2024-01-10T02:42:21;14.83;;;8.43;;
9467;SDS011;4772;52.382;9.752;2024-01-10T02:44:47;13.47;;;8.87;;
9467;SDS011;4772;52.382;9.752;2024-01-10T02:47:12;16.53;;;9.30;;
9467;SDS011;4772;52.382;9.752;2024-01-10T02:49:38;15.37;;;8.70;;
9467;SDS011;4772;52.382;9.752;2024-01-10T02:52:04;16.67;;;8.97;;
9467;SDS011;4772;52.382;9.752;2024-01-10T02:54:31;17.90;;;9.90;;
9467;SDS011;4772;52.382;9.752;2024-01-10T02:56:57;15.97;;;9.27;;
9467;SDS011;4772;52.382;9.752;2024-01-10T02:59:23;13.53;;;8.00;;
9467;SDS011;4772;52.382;9.752;2024-01-10T03:01:49;20.77;;;9.77;;
9467;SDS011;4772;52.382;9.752;2024-01-10T03:04:15;15.07;;;9.10;;
9467;SDS011;4772;52.382;9.752;2024-01-10T03:06:40;17.13;;;9.40;;
9467;SDS011;4772;52.382;9.752;2024-01-10T03:09:07;17.23;;;9.40;;
9467;SDS011;4772;52.382;9.752;2024-01-10T03:11:33;15.77;;;9.20;;
9467;SDS011;4772;52.382;9.752;2024-01-10T03:14:02;16.13;;;8.90;;
9467;SDS011;4772;52.382;9.752;2024-01-10T03:16:29;14.53;;;8.83;;
9467;SDS011;4772;52.382;9.752;2024-01-10T03:18:55;14.20;;;9.67;;
9467;SDS011;4772;52.382;9.752;2024-01-10T03:21:21;16.17;;;8.77;;
9467;SDS011;4772;52.382;9.752;2024-01-10T03:23:51;14.57;;;9.17;;
9467;SDS011;4772;52.382;9.752;2024-01-10T03:26:17;14.50;;;8.70;;
9467;SDS011;4772;52.382;9.752;2024-01-10T03:28:43;15.80;;;9.23;;
9467;SDS011;4772;52.382;9.752;2024-01-10T03:31:10;15.53;;;8.93;;
9467;SDS011;4772;52.382;9.752;2024-01-10T03:33:36;17.77;;;9.70;;
9467;SDS011;4772;52.382;9.752;2024-01-10T03:36:02;17.07;;;9.70;;
9467;SDS011;4772;52.382;9.752;2024-01-10T03:38:28;15.67;;;9.37;;
9467;SDS011;4772;52.382;9.752;2024-01-10T03:40:54;13.63;;;9.47;;
9467;SDS011;4772;52.382;9.752;2024-01-10T03:43:20;16.30;;;9.57;;
9467;SDS011;4772;52.382;9.752;2024-01-10T03:45:46;20.60;;;10.47;;
9467;SDS011;4772;52.382;9.752;2024-01-10T03:48:12;18.27;;;10.63;;
9467;SDS011;4772;52.382;9.752;2024-01-10T03:50:38;20.50;;;10.80;;
9467;SDS011;4772;52.382;9.752;2024-01-10T03:53:04;22.27;;;11.37;;
9467;SDS011;4772;52.382;9.752;2024-01-10T03:55:31;19.20;;;11.23;;
9467;SDS011;4772;52.382;9.752;2024-01-10T03:57:57;17.47;;;10.00;;
9467;SDS011;4772;52.382;9.752;2024-01-10T04:00:23;19.17;;;11.20;;
9467;SDS011;4772;52.382;9.752;2024-01-10T04:02:50;19.80;;;10.93;;
9467;SDS011;4772;52.382;9.752;2024-01-10T04:05:16;19.70;;;11.00;;
9467;SDS011;4772;52.382;9.752;2024-01-10T04:07:43;24.77;;;12.50;;
9467;SDS011;4772;52.382;9.752;2024-01-10T04:10:10;21.20;;;11.97;;
9467;SDS011;4772;52.382;9.752;2024-01-10T04:12:38;20.33;;;12.20;;
9467;SDS011;4772;52.382;9.752;2024-01-10T04:15:05;22.10;;;11.87;;
9467;SDS011;4772;52.382;9.752;2024-01-10T04:17:31;21.30;;;12.03;;
9467;SDS011;4772;52.382;9.752;2024-01-10T04:19:58;20.60;;;11.83;;
9467;SDS011;4772;52.382;9.752;2024-01-10T04:22:24;23.70;;;12.77;;
9467;SDS011;4772;52.382;9.752;2024-01-10T04:24:50;21.17;;;12.10;;
9467;SDS011;4772;52.382;9.752;2024-01-10T04:27:17;24.73;;;12.97;;
9467;SDS011;4772;52.382;9.752;2024-01-10T04:29:45;24.37;;;13.37;;
9467;SDS011;4772;52.382;9.752;2024-01-10T04:32:12;21.30;;;12.43;;
9467;SDS011;4772;52.382;9.752;2024-01-10T04:34:38;25.60;;;13.93;;
9467;SDS011;4772;52.382;9.752;2024-01-10T04:37:04;26.63;;;14.43;;
9467;SDS011;4772;52.382;9.752;2024-01-10T04:39:31;25.77;;;12.97;;
9467;SDS011;4772;52.382;9.752;2024-01-10T04:41:57;25.93;;;14.07;;
9467;SDS011;4772;52.382;9.752;2024-01-10T04:44:23;25.50;;;13.63;;
9467;SDS011;4772;52.382;9.752;2024-01-10T04:46:49;29.67;;;15.00;;
9467;SDS011;4772;52.382;9.752;2024-01-10T04:49:15;28.43;;;15.40;;
9467;SDS011;4772;52.382;9.752;2024-01-10T04:51:41;25.53;;;13.27;;
9467;SDS011;4772;52.382;9.752;2024-01-10T04:54:08;23.77;;;12.53;;
9467;SDS011;4772;52.382;9.752;2024-01-10T04:56:34;24.27;;;13.07;;
9467;SDS011;4772;52.382;9.752;2024-01-10T04:59:01;28.10;;;15.87;;
9467;SDS011;4772;52.382;9.752;2024-01-10T05:01:27;28.70;;;14.80;;
9467;SDS011;4772;52.382;9.752;2024-01-10T05:03:53;28.13;;;14.13;;
9467;SDS011;4772;52.382;9.752;2024-01-10T05:06:19;29.53;;;14.97;;
9467;SDS011;4772;52.382;9.752;2024-01-10T05:08:45;27.27;;;15.33;;
9467;SDS011;4772;52.382;9.752;2024-01-10T05:11:11;31.57;;;16.43;;
9467;SDS011;4772;52.382;9.752;2024-01-10T05:13:37;30.77;;;16.27;;
9467;SDS011;4772;52.382;9.752;2024-01-10T05:16:04;29.17;;;15.47;;
9467;SDS011;4772;52.382;9.752;2024-01-10T05:18:30;29.07;;;15.23;;
9467;SDS011;4772;52.382;9.752;2024-01-10T05:20:56;28.20;;;14.90;;
9467;SDS011;4772;52.382;9.752;2024-01-10T05:23:22;33.33;;;17.10;;
9467;SDS011;4772;52.382;9.752;2024-01-10T05:25:48;29.10;;;16.37;;
9467;SDS011;4772;52.382;9.752;2024-01-10T05:28:14;28.77;;;16.87;;
9467;SDS011;4772;52.382;9.752;2024-01-10T05:30:40;31.43;;;15.47;;
9467;SDS011;4772;52.382;9.752;2024-01-10T05:33:09;33.07;;;15.80;;
9467;SDS011;4772;52.382;9.752;2024-01-10T05:35:36;30.53;;;16.57;;
9467;SDS011;4772;52.382;9.752;2024-01-10T05:38:02;28.50;;;15.43;;
9467;SDS011;4772;52.382;9.752;2024-01-10T05:40:28;29.30;;;16.13;;
9467;SDS011;4772;52.382;9.752;2024-01-10T05:42:55;30.73;;;16.07;;
9467;SDS011;4772;52.382;9.752;2024-01-10T05:45:21;29.67;;;15.93;;
9467;SDS011;4772;52.382;9.752;2024-01-10T05:47:47;28.73;;;14.90;;
9467;SDS011;4772;52.382;9.752;2024-01-10T05:50:13;27.57;;;15.20;;
9467;SDS011;4772;52.382;9.752;2024-01-10T05:52:39;29.63;;;16.33;;
9467;SDS011;4772;52.382;9.752;2024-01-10T05:55:06;29.03;;;16.07;;
9467;SDS011;4772;52.382;9.752;2024-01-10T05:57:34;30.27;;;15.50;;
9467;SDS011;4772;52.382;9.752;2024-01-10T06:00:00;29.97;;;15.90;;
9467;SDS011;4772;52.382;9.752;2024-01-10T06:02:26;29.70;;;15.60;;
9467;SDS011;4772;52.382;9.752;2024-01-10T06:04:52;29.10;;;16.07;;
9467;SDS011;4772;52.382;9.752;2024-01-10T06:07:18;29.77;;;15.60;;
9467;SDS011;4772;52.382;9.752;2024-01-10T06:09:46;32.77;;;16.43;;
9467;SDS011;4772;52.382;9.752;2024-01-10T06:12:12;33.83;;;20.90;;
9467;SDS011;4772;52.382;9.752;2024-01-10T06:14:38;31.20;;;17.43;;
9467;SDS011;4772;52.382;9.752;2024-01-10T06:17:04;31.37;;;17.23;;
9467;SDS011;4772;52.382;9.752;2024-01-10T06:19:31;31.47;;;15.97;;
9467;SDS011;4772;52.382;9.752;2024-01-10T06:21:57;32.80;;;16.53;;
9467;SDS011;4772;52.382;9.752;2024-01-10T06:24:23;31.87;;;15.90;;
9467;SDS011;4772;52.382;9.752;2024-01-10T06:26:49;27.23;;;15.23;;
9467;SDS011;4772;52.382;9.752;2024-01-10T06:29:15;37.83;;;15.27;;
9467;SDS011;4772;52.382;9.752;2024-01-10T06:31:41;31.27;;;15.73;;
9467;SDS011;4772;52.382;9.752;2024-01-10T06:34:07;30.47;;;15.77;;
9467;SDS011;4772;52.382;9.752;2024-01-10T06:36:34;26.73;;;14.70;;
9467;SDS011;4772;52.382;9.752;2024-01-10T06:39:00;26.23;;;14.93;;
9467;SDS011;4772;52.382;9.752;2024-01-10T06:41:26;24.93;;;14.90;;
9467;SDS011;4772;52.382;9.752;2024-01-10T06:43:52;40.67;;;20.83;;
9467;SDS011;4772;52.382;9.752;2024-01-10T06:46:18;32.43;;;16.77;;
9467;SDS011;4772;52.382;9.752;2024-01-10T06:48:44;29.03;;;15.13;;
9467;SDS011;4772;52.382;9.752;2024-01-10T06:51:14;31.87;;;15.07;;
9467;SDS011;4772;52.382;9.752;2024-01-10T06:53:40;29.57;;;16.10;;
9467;SDS011;4772;52.382;9.752;2024-01-10T06:56:06;35.00;;;17.33;;
9467;SDS011;4772;52.382;9.752;2024-01-10T06:58:33;31.53;;;15.97;;
9467;SDS011;4772;52.382;9.752;2024-01-10T07:00:59;31.63;;;15.63;;
9467;SDS011;4772;52.382;9.752;2024-01-10T07:03:26;32.07;;;15.63;;
9467;SDS011;4772;52.382;9.752;2024-01-10T07:05:52;29.43;;;15.23;;
9467;SDS011;4772;52.382;9.752;2024-01-10T07:08:18;31.13;;;16.20;;
9467;SDS011;4772;52.382;9.752;2024-01-10T07:10:44;28.67;;;15.37;;
9467;SDS011;4772;52.382;9.752;2024-01-10T07:13:10;26.87;;;15.17;;
9467;SDS011;4772;52.382;9.752;2024-01-10T07:15:36;31.87;;;16.93;;
9467;SDS011;4772;52.382;9.752;2024-01-10T07:18:03;30.97;;;16.63;;
9467;SDS011;4772;52.382;9.752;2024-01-10T07:20:29;29.77;;;15.93;;
9467;SDS011;4772;52.382;9.752;2024-01-10T07:22:55;29.73;;;15.67;;
9467;SDS011;4772;52.382;9.752;2024-01-10T07:25:21;30.13;;;15.97;;
9467;SDS011;4772;52.382;9.752;2024-01-10T07:27:50;28.93;;;16.20;;
9467;SDS011;4772;52.382;9.752;2024-01-10T07:30:16;32.03;;;15.93;;
9467;SDS011;4772;52.382;9.752;2024-01-10T07:32:42;31.73;;;16.57;;
9467;SDS011;4772;52.382;9.752;2024-01-10T07:35:09;33.23;;;16.30;;
9467;SDS011;4772;52.382;9.752;2024-01-10T07:37:36;27.83;;;15.90;;
9467;SDS011;4772;52.382;9.752;2024-01-10T07:40:03;28.53;;;17.53;;
9467;SDS011;4772;52.382;9.752;2024-01-10T07:42:31;31.47;;;16.07;;
9467;SDS011;4772;52.382;9.752;2024-01-10T07:44:57;30.47;;;15.70;;
9467;SDS011;4772;52.382;9.752;2024-01-10T07:47:23;29.57;;;16.37;;
9467;SDS011;4772;52.382;9.752;2024-01-10T07:49:49;30.23;;;17.03;;
9467;SDS011;4772;52.382;9.752;2024-01-10T07:52:15;27.30;;;15.90;;
9467;SDS011;4772;52.382;9.752;2024-01-10T07:54:41;31.73;;;16.30;;
9467;SDS011;4772;52.382;9.752;2024-01-10T07:57:07;31.63;;;16.87;;
9467;SDS011;4772;52.382;9.752;2024-01-10T07:59:33;30.57;;;15.93;;
9467;SDS011;4772;52.382;9.752;2024-01-10T08:02:01;29.97;;;16.50;;
9467;SDS011;4772;52.382;9.752;2024-01-10T08:04:27;31.70;;;16.97;;
9467;SDS011;4772;52.382;9.752;2024-01-10T08:06:54;30.20;;;16.50;;
9467;SDS011;4772;52.382;9.752;2024-01-10T08:09:21;30.00;;;16.33;;
9467;SDS011;4772;52.382;9.752;2024-01-10T08:11:48;28.77;;;15.83;;
9467;SDS011;4772;52.382;9.752;2024-01-10T08:14:14;28.67;;;16.27;;
9467;SDS011;4772;52.382;9.752;2024-01-10T08:16:41;26.80;;;15.87;;
9467;SDS011;4772;52.382;9.752;2024-01-10T08:19:08;28.57;;;16.03;;
9467;SDS011;4772;52.382;9.752;2024-01-10T08:21:35;31.73;;;17.93;;
9467;SDS011;4772;52.382;9.752;2024-01-10T08:24:01;29.40;;;16.10;;
9467;SDS011;4772;52.382;9.752;2024-01-10T08:26:28;31.30;;;16.57;;
9467;SDS011;4772;52.382;9.752;2024-01-10T08:28:54;30.57;;;16.87;;
9467;SDS011;4772;52.382;9.752;2024-01-10T08:31:20;28.77;;;15.90;;
9467;SDS011;4772;52.382;9.752;2024-01-10T08:33:47;30.07;;;16.40;;
9467;SDS011;4772;52.382;9.752;2024-01-10T08:36:13;28.00;;;16.93;;
9467;SDS011;4772;52.382;9.752;2024-01-10T08:38:40;35.33;;;17.10;;
9467;SDS011;4772;52.382;9.752;2024-01-10T08:41:07;32.20;;;17.17;;
9467;SDS011;4772;52.382;9.752;2024-01-10T08:43:33;28.10;;;15.83;;
9467;SDS011;4772;52.382;9.752;2024-01-10T08:45:59;32.03;;;17.53;;
9467;SDS011;4772;52.382;9.752;2024-01-10T08:48:25;30.67;;;17.40;;
9467;SDS011;4772;52.382;9.752;2024-01-10T08:50:51;28.63;;;16.93;;
9467;SDS011;4772;52.382;9.752;2024-01-10T08:53:21;29.33;;;16.53;;
9467;SDS011;4772;52.382;9.752;2024-01-10T08:55:47;29.63;;;16.50;;
9467;SDS011;4772;52.382;9.752;2024-01-10T08:58:13;36.07;;;18.23;;
9467;SDS011;4772;52.382;9.752;2024-01-10T09:00:39;33.23;;;17.03;;
9467;SDS011;4772;52.382;9.752;2024-01-10T09:03:05;29.70;;;16.47;;
9467;SDS011;4772;52.382;9.752;2024-01-10T09:05:32;27.63;;;16.33;;
9467;SDS011;4772;52.382;9.752;2024-01-10T09:07:58;28.97;;;15.83;;
9467;SDS011;4772;52.382;9.752;2024-01-10T09:10:24;29.30;;;16.53;;
9467;SDS011;4772;52.382;9.752;2024-01-10T09:12:53;32.00;;;16.77;;
9467;SDS011;4772;52.382;9.752;2024-01-10T09:15:19;29.52;;;17.08;;
9467;SDS011;4772;52.382;9.752;2024-01-10T09:17:45;30.43;;;17.23;;
9467;SDS011;4772;52.382;9.752;2024-01-10T09:20:11;30.40;;;17.30;;
9467;SDS011;4772;52.382;9.752;2024-01-10T09:22:38;30.00;;;17.27;;
9467;SDS011;4772;52.382;9.752;2024-01-10T09:25:05;33.97;;;17.73;;
9467;SDS011;4772;52.382;9.752;2024-01-10T09:27:31;34.70;;;18.43;;
9467;SDS011;4772;52.382;9.752;2024-01-10T09:29:58;29.40;;;18.00;;
9467;SDS011;4772;52.382;9.752;2024-01-10T09:32:24;33.50;;;18.03;;
9467;SDS011;4772;52.382;9.752;2024-01-10T09:34:50;31.03;;;17.03;;
9467;SDS011;4772;52.382;9.752;2024-01-10T09:37:16;28.27;;;17.10;;
9467;SDS011;4772;52.382;9.752;2024-01-10T09:39:42;33.57;;;18.67;;
9467;SDS011;4772;52.382;9.752;2024-01-10T09:42:09;31.70;;;18.23;;
9467;SDS011;4772;52.382;9.752;2024-01-10T09:44:35;31.90;;;16.90;;
9467;SDS011;4772;52.382;9.752;2024-01-10T09:47:01;38.70;;;17.97;;
9467;SDS011;4772;52.382;9.752;2024-01-10T09:49:27;32.43;;;16.83;;
9467;SDS011;4772;52.382;9.752;2024-01-10T09:51:57;29.23;;;16.63;;
9467;SDS011;4772;52.382;9.752;2024-01-10T09:54:25;32.57;;;17.70;;
9467;SDS011;4772;52.382;9.752;2024-01-10T09:56:51;29.37;;;17.30;;
9467;SDS011;4772;52.382;9.752;2024-01-10T09:59:18;28.80;;;17.00;;
9467;SDS011;4772;52.382;9.752;2024-01-10T10:01:44;30.23;;;18.33;;
9467;SDS011;4772;52.382;9.752;2024-01-10T10:04:11;30.70;;;17.27;;
9467;SDS011;4772;52.382;9.752;2024-01-10T10:06:37;33.83;;;17.70;;
9467;SDS011;4772;52.382;9.752;2024-01-10T10:09:04;32.10;;;17.27;;
9467;SDS011;4772;52.382;9.752;2024-01-10T10:11:30;28.07;;;16.93;;
9467;SDS011;4772;52.382;9.752;2024-01-10T10:13:56;30.27;;;16.87;;
9467;SDS011;4772;52.382;9.752;2024-01-10T10:16:23;28.53;;;16.53;;
9467;SDS011;4772;52.382;9.752;2024-01-10T10:18:52;32.90;;;16.37;;
9467;SDS011;4772;52.382;9.752;2024-01-10T10:21:23;31.23;;;17.60;;
9467;SDS011;4772;52.382;9.752;2024-01-10T10:24:02;33.07;;;18.10;;
9467;SDS011;4772;52.382;9.752;2024-01-10T10:26:32;35.80;;;18.77;;
9467;SDS011;4772;52.382;9.752;2024-01-10T10:28:59;30.87;;;17.40;;
9467;SDS011;4772;52.382;9.752;2024-01-10T10:31:25;31.97;;;18.83;;
9467;SDS011;4772;52.382;9.752;2024-01-10T10:33:51;29.33;;;16.90;;
9467;SDS011;4772;52.382;9.752;2024-01-10T10:36:18;31.00;;;17.40;;
9467;SDS011;4772;52.382;9.752;2024-01-10T10:38:46;32.33;;;17.47;;
9467;SDS011;4772;52.382;9.752;2024-01-10T10:41:12;32.10;;;17.33;;
9467;SDS011;4772;52.382;9.752;2024-01-10T10:43:39;30.93;;;17.80;;
9467;SDS011;4772;52.382;9.752;2024-01-10T10:46:08;26.87;;;17.10;;
9467;SDS011;4772;52.382;9.752;2024-01-10T10:48:37;32.57;;;18.07;;
9467;SDS011;4772;52.382;9.752;2024-01-10T10:53:34;30.87;;;19.53;;
9467;SDS011;4772;52.382;9.752;2024-01-10T10:56:04;30.77;;;18.50;;
9467;SDS011;4772;52.382;9.752;2024-01-10T10:58:34;30.47;;;18.83;;
9467;SDS011;4772;52.382;9.752;2024-01-10T11:01:02;34.53;;;19.87;;
9467;SDS011;4772;52.382;9.752;2024-01-10T11:03:30;31.70;;;18.87;;
9467;SDS011;4772;52.382;9.752;2024-01-10T11:05:56;33.27;;;18.37;;
9467;SDS011;4772;52.382;9.752;2024-01-10T11:08:25;32.10;;;19.63;;
9467;SDS011;4772;52.382;9.752;2024-01-10T11:10:52;29.53;;;18.93;;
9467;SDS011;4772;52.382;9.752;2024-01-10T11:13:23;29.87;;;19.43;;
9467;SDS011;4772;52.382;9.752;2024-01-10T11:16:16;28.83;;;19.43;;
9467;SDS011;4772;52.382;9.752;2024-01-10T11:23:51;29.73;;;19.90;;
9467;SDS011;4772;52.382;9.752;2024-01-10T11:26:18;34.60;;;21.53;;
9467;SDS011;4772;52.382;9.752;2024-01-10T11:28:45;33.93;;;20.57;;
9467;SDS011;4772;52.382;9.752;2024-01-10T11:31:12;30.27;;;21.13;;
9467;SDS011;4772;52.382;9.752;2024-01-10T11:33:41;32.70;;;20.50;;
9467;SDS011;4772;52.382;9.752;2024-01-10T11:36:18;30.13;;;20.67;;
9467;SDS011;4772;52.382;9.752;2024-01-10T11:41:19;27.13;;;19.80;;
9467;SDS011;4772;52.382;9.752;2024-01-10T11:43:46;32.00;;;20.07;;
9467;SDS011;4772;52.382;9.752;2024-01-10T11:46:13;28.77;;;19.50;;
9467;SDS011;4772;52.382;9.752;2024-01-10T11:48:39;32.77;;;19.90;;
9467;SDS011;4772;52.382;9.752;2024-01-10T11:51:06;32.53;;;20.03;;
9467;SDS011;4772;52.382;9.752;2024-01-10T11:53:43;33.03;;;20.57;;
9467;SDS011;4772;52.382;9.752;2024-01-10T11:56:15;30.67;;;20.03;;
9467;SDS011;4772;52.382;9.752;2024-01-10T11:58:55;30.10;;;20.30;;
9467;SDS011;4772;52.382;9.752;2024-01-10T12:01:21;34.73;;;20.83;;
9467;SDS011;4772;52.382;9.752;2024-01-10T12:03:50;35.47;;;21.00;;
9467;SDS011;4772;52.382;9.752;2024-01-10T12:06:18;31.23;;;19.63;;
9467;SDS011;4772;52.382;9.752;2024-01-10T12:08:45;39.03;;;22.57;;
9467;SDS011;4772;52.382;9.752;2024-01-10T12:11:11;29.80;;;19.87;;
9467;SDS011;4772;52.382;9.752;2024-01-10T12:13:37;31.03;;;21.03;;
9467;SDS011;4772;52.382;9.752;2024-01-10T12:16:03;28.03;;;19.27;;
9467;SDS011;4772;52.382;9.752;2024-01-10T12:18:30;27.50;;;18.53;;
9467;SDS011;4772;52.382;9.752;2024-01-10T12:20:57;37.90;;;23.23;;
9467;SDS011;4772;52.382;9.752;2024-01-10T12:23:23;36.53;;;20.50;;
9467;SDS011;4772;52.382;9.752;2024-01-10T12:25:49;35.37;;;21.50;;
9467;SDS011;4772;52.382;9.752;2024-01-10T12:28:17;34.27;;;22.27;;
9467;SDS011;4772;52.382;9.752;2024-01-10T12:30:43;30.63;;;21.70;;
9467;SDS011;4772;52.382;9.752;2024-01-10T12:33:09;35.10;;;20.80;;
9467;SDS011;4772;52.382;9.752;2024-01-10T12:35:35;31.83;;;20.40;;
9467;SDS011;4772;52.382;9.752;2024-01-10T12:38:02;34.83;;;23.07;;
9467;SDS011;4772;52.382;9.752;2024-01-10T12:40:28;56.43;;;26.03;;
9467;SDS011;4772;52.382;9.752;2024-01-10T12:43:04;36.87;;;20.97;;
9467;SDS011;4772;52.382;9.752;2024-01-10T12:45:30;30.27;;;20.17;;
9467;SDS011;4772;52.382;9.752;2024-01-10T12:47:59;29.97;;;19.83;;
9467;SDS011;4772;52.382;9.752;2024-01-10T12:50:26;30.63;;;20.00;;
9467;SDS011;4772;52.382;9.752;2024-01-10T12:52:53;29.87;;;20.10;;
9467;SDS011;4772;52.382;9.752;2024-01-10T12:55:19;27.30;;;18.80;;
9467;SDS011;4772;52.382;9.752;2024-01-10T12:57:46;29.30;;;20.10;;
9467;SDS011;4772;52.382;9.752;2024-01-10T13:00:12;31.33;;;18.87;;
9467;SDS011;4772;52.382;9.752;2024-01-10T13:02:39;28.47;;;19.40;;
9467;SDS011;4772;52.382;9.752;2024-01-10T13:05:08;28.10;;;18.47;;
9467;SDS011;4772;52.382;9.752;2024-01-10T13:07:35;33.97;;;19.73;;
9467;SDS011;4772;52.382;9.752;2024-01-10T13:10:01;28.83;;;18.50;;
9467;SDS011;4772;52.382;9.752;2024-01-10T13:12:27;28.70;;;18.37;;
9467;SDS011;4772;52.382;9.752;2024-01-10T13:14:53;27.87;;;18.63;;
9467;SDS011;4772;52.382;9.752;2024-01-10T13:17:21;30.67;;;19.40;;
9467;SDS011;4772;52.382;9.752;2024-01-10T13:19:48;33.30;;;19.40;;
9467;SDS011;4772;52.382;9.752;2024-01-10T13:22:14;26.53;;;18.57;;
9467;SDS011;4772;52.382;9.752;2024-01-10T13:24:44;31.27;;;18.80;;
9467;SDS011;4772;52.382;9.752;2024-01-10T13:27:11;26.03;;;17.77;;
9467;SDS011;4772;52.382;9.752;2024-01-10T13:29:37;32.17;;;18.87;;
9467;SDS011;4772;52.382;9.752;2024-01-10T13:32:03;33.20;;;18.90;;
9467;SDS011;4772;52.382;9.752;2024-01-10T13:34:29;29.63;;;19.07;;
9467;SDS011;4772;52.382;9.752;2024-01-10T13:36:56;31.00;;;18.90;;
9467;SDS011;4772;52.382;9.752;2024-01-10T13:39:21;32.33;;;19.57;;
9467;SDS011;4772;52.382;9.752;2024-01-10T13:41:47;37.87;;;20.00;;
9467;SDS011;4772;52.382;9.752;2024-01-10T13:44:13;28.33;;;18.80;;
9467;SDS011;4772;52.382;9.752;2024-01-10T13:46:39;25.10;;;18.13;;
9467;SDS011;4772;52.382;9.752;2024-01-10T13:49:06;31.63;;;18.50;;
9467;SDS011;4772;52.382;9.752;2024-01-10T13:51:32;31.33;;;17.30;;
9467;SDS011;4772;52.382;9.752;2024-01-10T13:53:58;29.57;;;18.23;;
9467;SDS011;4772;52.382;9.752;2024-01-10T13:56:24;29.33;;;18.70;;
9467;SDS011;4772;52.382;9.752;2024-01-10T13:58:52;27.13;;;17.17;;
9467;SDS011;4772;52.382;9.752;2024-01-10T14:01:18;29.27;;;17.87;;
9467;SDS011;4772;52.382;9.752;2024-01-10T14:03:44;31.17;;;18.67;;
9467;SDS011;4772;52.382;9.752;2024-01-10T14:06:10;29.77;;;18.73;;
9467;SDS011;4772;52.382;9.752;2024-01-10T14:08:37;30.30;;;18.50;;
9467;SDS011;4772;52.382;9.752;2024-01-10T14:11:05;27.80;;;18.23;;
9467;SDS011;4772;52.382;9.752;2024-01-10T14:13:31;33.27;;;19.23;;
9467;SDS011;4772;52.382;9.752;2024-01-10T14:15:57;27.00;;;19.33;;
9467;SDS011;4772;52.382;9.752;2024-01-10T14:18:23;27.87;;;17.60;;
9467;SDS011;4772;52.382;9.752;2024-01-10T14:20:49;31.00;;;19.30;;
9467;SDS011;4772;52.382;9.752;2024-01-10T14:23:15;27.93;;;18.10;;
9467;SDS011;4772;52.382;9.752;2024-01-10T14:25:42;29.67;;;18.40;;
9467;SDS011;4772;52.382;9.752;2024-01-10T14:28:08;29.00;;;18.37;;
9467;SDS011;4772;52.382;9.752;2024-01-10T14:30:34;27.20;;;17.30;;
9467;SDS011;4772;52.382;9.752;2024-01-10T14:33:00;29.20;;;17.77;;
9467;SDS011;4772;52.382;9.752;2024-01-10T14:35:26;28.33;;;17.87;;
9467;SDS011;4772;52.382;9.752;2024-01-10T14:37:52;29.57;;;17.60;;
9467;SDS011;4772;52.382;9.752;2024-01-10T14:40:18;31.60;;;18.77;;
9467;SDS011;4772;52.382;9.752;2024-01-10T14:42:47;30.70;;;17.33;;
9467;SDS011;4772;52.382;9.752;2024-01-10T14:45:13;27.90;;;16.70;;
9467;SDS011;4772;52.382;9.752;2024-01-10T14:47:39;30.47;;;17.00;;
9467;SDS011;4772;52.382;9.752;2024-01-10T14:50:05;35.77;;;18.70;;
9467;SDS011;4772;52.382;9.752;2024-01-10T14:52:31;33.87;;;17.87;;
9467;SDS011;4772;52.382;9.752;2024-01-10T14:54:57;33.90;;;17.10;;
9467;SDS011;4772;52.382;9.752;2024-01-10T14:57:23;31.00;;;16.87;;